Time;durP1;ratioP1;P1;durP2;ratioP2;P2;SDS_P1;SDS_P2;PMS_P1;PMS_P2;Temp;Humidity;BMP_temperature;BMP_pressure;BME280_temperature;BME280_humidity;BME280_pressure;Samples;Min_cycle;Max_cycle;Signal;HPM_P1;HPM_P2
2022/10/15 00:02:10;;;;;;;0.80;0.60;;;13.20;99.90;;;;;;5033341;28;21282;-58
2022/10/15 00:04:36;;;;;;;1.13;0.60;;;13.20;99.90;;;;;;5028628;28;20234;-59
2022/10/15 00:07:02;;;;;;;0.70;0.70;;;13.10;99.90;;;;;;5025551;28;20203;-60
2022/10/15 00:09:28;;;;;;;2.10;0.70;;;13.20;99.90;;;;;;5027699;28;20585;-57
2022/10/15 00:11:53;;;;;;;0.70;0.60;;;13.10;99.90;;;;;;5029921;28;20190;-57
2022/10/15 00:14:19;;;;;;;1.27;0.70;;;13.10;99.90;;;;;;5028269;28;20195;-59
2022/10/15 00:16:45;;;;;;;2.20;0.60;;;13.20;99.90;;;;;;5028308;28;20187;-58
2022/10/15 00:19:11;;;;;;;0.60;0.60;;;13.20;99.90;;;;;;5028338;28;20228;-64
2022/10/15 00:21:37;;;;;;;0.60;0.60;;;13.20;99.90;;;;;;5025818;28;20172;-60
2022/10/15 00:24:03;;;;;;;0.60;0.60;;;13.20;99.90;;;;;;5030164;28;20452;-59
2022/10/15 00:26:29;;;;;;;0.50;0.50;;;13.20;99.90;;;;;;5030146;28;21118;-60
2022/10/15 00:28:58;;;;;;;0.80;0.70;;;13.20;99.90;;;;;;5021963;28;20489;-58
2022/10/15 00:31:26;;;;;;;0.70;0.60;;;13.20;99.90;;;;;;5026607;28;20195;-58
2022/10/15 00:33:53;;;;;;;0.60;0.60;;;13.20;99.90;;;;;;5026027;28;20450;-58
2022/10/15 00:36:22;;;;;;;1.83;0.60;;;13.20;99.90;;;;;;5028557;28;20443;-60
2022/10/15 00:38:49;;;;;;;0.70;0.70;;;13.20;99.90;;;;;;5028195;28;20461;-58
2022/10/15 00:41:21;;;;;;;0.60;0.60;;;13.20;99.90;;;;;;5026057;28;20429;-62
2022/10/15 00:43:53;;;;;;;0.60;0.60;;;13.20;99.90;;;;;;5021324;28;20553;-60
2022/10/15 00:46:22;;;;;;;0.60;0.60;;;13.20;99.90;;;;;;5028184;28;20470;-59
2022/10/15 00:48:51;;;;;;;0.73;0.60;;;13.20;99.90;;;;;;5028345;28;20438;-58
2022/10/15 00:51:19;;;;;;;0.70;0.60;;;13.20;99.90;;;;;;5027387;28;20489;-58
2022/10/15 00:53:47;;;;;;;0.80;0.60;;;13.30;99.90;;;;;;5025780;28;20458;-59
2022/10/15 00:56:14;;;;;;;0.70;0.70;;;13.30;99.90;;;;;;5029741;28;20963;-59
2022/10/15 00:58:41;;;;;;;2.27;0.70;;;13.30;99.90;;;;;;5028437;28;20497;-58
2022/10/15 01:01:06;;;;;;;0.60;0.60;;;13.20;99.90;;;;;;5025310;28;20448;-59
2022/10/15 01:03:34;;;;;;;3.80;0.73;;;13.30;99.90;;;;;;5031582;28;20433;-59
2022/10/15 01:06:01;;;;;;;0.57;0.50;;;13.30;99.90;;;;;;5033007;28;20269;-59
2022/10/15 01:08:27;;;;;;;1.30;0.80;;;13.30;99.90;;;;;;5026533;28;20508;-58
2022/10/15 01:11:22;;;;;;;0.60;0.60;;;13.30;99.90;;;;;;5022955;28;20509;-59
2022/10/15 01:14:12;;;;;;;1.70;0.70;;;13.30;99.90;;;;;;5025713;28;20252;-58
2022/10/15 01:16:47;;;;;;;0.60;0.60;;;13.30;99.90;;;;;;5028717;28;20427;-59
2022/10/15 01:19:29;;;;;;;0.83;0.70;;;13.30;99.90;;;;;;5024310;28;20548;-58
2022/10/15 01:22:07;;;;;;;0.70;0.70;;;13.30;99.90;;;;;;5024284;28;20430;-60
2022/10/15 01:24:43;;;;;;;0.60;0.60;;;13.30;99.90;;;;;;5029226;28;21003;-57
2022/10/15 01:27:30;;;;;;;0.60;0.60;;;13.40;99.90;;;;;;5025461;28;20438;-59
2022/10/15 01:30:31;;;;;;;0.70;0.70;;;13.40;99.90;;;;;;5025984;28;20428;-59
2022/10/15 01:33:19;;;;;;;1.73;0.60;;;13.40;99.90;;;;;;4964189;28;20523;-61
2022/10/15 01:35:50;;;;;;;1.67;1.17;;;13.40;99.90;;;;;;5024728;28;20517;-58
2022/10/15 01:38:42;;;;;;;2.80;1.40;;;13.40;99.90;;;;;;5022540;28;20438;-58
2022/10/15 01:41:19;;;;;;;0.87;0.80;;;13.40;99.90;;;;;;5029072;28;20525;-58
2022/10/15 01:43:56;;;;;;;0.60;0.60;;;13.40;99.90;;;;;;5026867;28;20453;-58
2022/10/15 01:46:34;;;;;;;1.27;0.70;;;13.40;99.90;;;;;;5026524;28;20450;-59
2022/10/15 01:49:04;;;;;;;0.60;0.60;;;13.40;99.90;;;;;;5029643;28;20434;-58
2022/10/15 01:51:34;;;;;;;1.77;1.07;;;13.40;99.90;;;;;;5030696;28;20429;-58
2022/10/15 01:54:03;;;;;;;2.20;0.70;;;13.40;99.90;;;;;;5024281;28;20465;-57
2022/10/15 01:56:33;;;;;;;3.30;0.70;;;13.40;99.90;;;;;;5029041;28;20415;-59
2022/10/15 01:59:01;;;;;;;0.60;0.60;;;13.40;99.90;;;;;;5027097;28;20568;-59
2022/10/15 02:01:27;;;;;;;0.50;0.50;;;13.50;99.90;;;;;;5009304;28;20426;-58
2022/10/15 02:03:53;;;;;;;3.13;0.70;;;13.50;99.90;;;;;;5021795;28;20456;-58
2022/10/15 02:06:33;;;;;;;0.60;0.60;;;13.40;99.90;;;;;;5027300;28;20674;-59
2022/10/15 02:09:14;;;;;;;0.60;0.60;;;13.50;99.90;;;;;;5017847;28;20181;-60
2022/10/15 02:12:04;;;;;;;0.97;0.63;;;13.50;99.90;;;;;;5037490;28;20512;-58
2022/10/15 02:15:05;;;;;;;0.60;0.60;;;13.50;99.90;;;;;;5023649;28;20465;-59
2022/10/15 02:17:38;;;;;;;1.10;0.60;;;13.50;99.90;;;;;;5026861;28;20454;-58
2022/10/15 02:20:23;;;;;;;1.53;0.60;;;13.50;99.90;;;;;;5025333;28;20422;-59
2022/10/15 02:23:06;;;;;;;0.90;0.70;;;13.50;99.90;;;;;;5024465;28;20434;-58
2022/10/15 02:25:34;;;;;;;1.00;0.70;;;13.50;99.90;;;;;;5025749;28;20527;-59
2022/10/15 02:28:01;;;;;;;0.80;0.77;;;13.50;99.90;;;;;;5031034;28;20514;-59
2022/10/15 02:30:28;;;;;;;1.90;0.50;;;13.50;99.90;;;;;;5029974;28;20430;-58
2022/10/15 02:32:57;;;;;;;1.07;0.70;;;13.50;99.90;;;;;;5019922;28;20426;-59
2022/10/15 02:35:25;;;;;;;1.40;0.73;;;13.50;99.90;;;;;;5018277;28;21027;-59
2022/10/15 02:37:53;;;;;;;1.87;0.60;;;13.50;99.90;;;;;;5017147;28;21090;-58
2022/10/15 02:40:24;;;;;;;0.80;0.80;;;13.50;99.90;;;;;;5032176;28;20423;-57
2022/10/15 02:42:50;;;;;;;1.37;1.07;;;13.50;99.90;;;;;;5043969;28;20465;-59
2022/10/15 02:45:16;;;;;;;2.70;0.87;;;13.50;99.90;;;;;;5025261;28;20504;-59
2022/10/15 02:47:42;;;;;;;0.87;0.87;;;13.50;99.90;;;;;;5052493;28;20461;-59
2022/10/15 02:50:08;;;;;;;1.60;0.70;;;13.50;99.90;;;;;;5033254;28;20180;-57
2022/10/15 02:52:33;;;;;;;0.70;0.70;;;13.50;99.90;;;;;;5029511;28;20183;-60
2022/10/15 02:54:59;;;;;;;0.70;0.70;;;13.50;99.90;;;;;;5032234;28;20527;-60
2022/10/15 02:57:25;;;;;;;0.70;0.70;;;13.50;99.90;;;;;;5031954;28;20191;-62
2022/10/15 02:59:50;;;;;;;0.70;0.70;;;13.50;99.90;;;;;;5031133;28;20179;-57
2022/10/15 03:02:16;;;;;;;1.27;0.70;;;13.50;99.90;;;;;;5026281;28;20182;-58
2022/10/15 03:04:41;;;;;;;1.37;0.70;;;13.50;99.90;;;;;;5031106;28;20257;-59
2022/10/15 03:07:07;;;;;;;1.80;0.70;;;13.50;99.90;;;;;;5030502;28;20657;-59
2022/10/15 03:09:33;;;;;;;0.90;0.73;;;13.50;99.90;;;;;;5027141;28;20176;-59
2022/10/15 03:11:58;;;;;;;1.00;0.90;;;13.50;99.90;;;;;;5030649;28;20188;-58
2022/10/15 03:14:24;;;;;;;2.10;0.70;;;13.50;99.90;;;;;;5030972;28;20700;-59
2022/10/15 03:16:50;;;;;;;0.70;0.70;;;13.50;99.90;;;;;;5030398;28;20187;-58
2022/10/15 03:19:15;;;;;;;2.00;0.80;;;13.50;99.90;;;;;;5042422;28;20176;-58
2022/10/15 03:21:41;;;;;;;1.20;1.00;;;13.50;99.90;;;;;;5030808;28;20596;-59
2022/10/15 03:24:07;;;;;;;3.13;2.27;;;13.50;99.90;;;;;;5031772;28;20275;-59
2022/10/15 03:26:32;;;;;;;1.70;1.10;;;13.50;99.90;;;;;;5028560;28;20204;-58
2022/10/15 03:28:58;;;;;;;0.80;0.80;;;13.50;99.90;;;;;;5029683;28;20171;-60
2022/10/15 03:31:24;;;;;;;0.80;0.80;;;13.50;99.90;;;;;;5030093;28;20916;-56
2022/10/15 03:33:49;;;;;;;0.70;0.70;;;13.50;99.90;;;;;;5031851;28;20282;-59
2022/10/15 03:36:15;;;;;;;5.30;0.70;;;13.50;99.90;;;;;;5029550;28;20194;-59
2022/10/15 03:38:40;;;;;;;0.80;0.80;;;13.50;99.90;;;;;;5026144;28;20582;-60
2022/10/15 03:41:06;;;;;;;1.53;1.00;;;13.50;99.90;;;;;;5053615;28;20266;-59
2022/10/15 03:43:32;;;;;;;4.70;0.90;;;13.60;99.90;;;;;;5029410;28;20226;-59
2022/10/15 03:46:01;;;;;;;5.30;0.90;;;13.60;99.90;;;;;;5041393;28;20444;-58
2022/10/15 03:48:27;;;;;;;1.00;0.90;;;13.60;99.90;;;;;;5027113;28;20230;-60
2022/10/15 03:50:52;;;;;;;2.57;0.80;;;13.60;99.90;;;;;;5029015;28;20434;-58
2022/10/15 03:53:18;;;;;;;0.70;0.70;;;13.60;99.90;;;;;;5014462;28;20749;-56
2022/10/15 03:55:44;;;;;;;3.40;1.13;;;13.60;99.90;;;;;;5029296;28;20270;-60
2022/10/15 03:58:09;;;;;;;0.80;0.80;;;13.60;99.90;;;;;;5029762;28;20175;-59
2022/10/15 04:00:35;;;;;;;1.33;0.80;;;13.60;99.90;;;;;;5033783;28;20229;-59
2022/10/15 04:03:01;;;;;;;0.70;0.70;;;13.60;99.90;;;;;;5029240;28;20190;-58
2022/10/15 04:05:27;;;;;;;0.70;0.70;;;13.60;99.90;;;;;;5033198;28;20199;-59
2022/10/15 04:07:52;;;;;;;1.10;0.67;;;13.60;99.90;;;;;;5027734;28;20199;-60
2022/10/15 04:10:18;;;;;;;0.80;0.80;;;13.60;99.90;;;;;;5027008;28;20653;-59
2022/10/15 04:12:44;;;;;;;2.90;1.40;;;13.60;99.90;;;;;;5029131;28;20195;-60
2022/10/15 04:15:09;;;;;;;0.90;0.90;;;13.60;99.90;;;;;;5028493;28;20232;-59
2022/10/15 04:17:35;;;;;;;0.80;0.80;;;13.60;99.90;;;;;;5028266;28;20195;-58
2022/10/15 04:20:01;;;;;;;0.70;0.70;;;13.70;99.90;;;;;;5029512;28;20179;-59
2022/10/15 04:22:26;;;;;;;0.70;0.70;;;13.60;99.90;;;;;;5025185;28;20183;-59
2022/10/15 04:24:52;;;;;;;0.70;0.70;;;13.70;99.90;;;;;;5028058;28;20639;-64
2022/10/15 04:27:18;;;;;;;1.17;0.87;;;13.70;99.90;;;;;;5028975;28;20722;-59
2022/10/15 04:29:45;;;;;;;1.77;0.73;;;13.70;99.90;;;;;;5029188;28;20717;-58
2022/10/15 04:32:14;;;;;;;2.60;0.80;;;13.70;99.90;;;;;;5026843;28;20175;-59
2022/10/15 04:34:39;;;;;;;0.93;0.80;;;13.70;99.90;;;;;;5026266;28;20461;-58
2022/10/15 04:37:05;;;;;;;1.03;0.80;;;13.70;99.90;;;;;;5028653;28;20430;-58
2022/10/15 04:39:31;;;;;;;0.70;0.70;;;13.70;99.90;;;;;;5029695;28;20180;-59
2022/10/15 04:41:56;;;;;;;0.70;0.70;;;13.70;99.90;;;;;;5022773;28;20208;-58
2022/10/15 04:44:22;;;;;;;0.90;0.90;;;13.70;99.90;;;;;;5027497;28;20689;-59
2022/10/15 04:46:48;;;;;;;0.63;0.63;;;13.70;99.90;;;;;;5028095;28;20178;-59
2022/10/15 04:49:13;;;;;;;0.80;0.80;;;13.70;99.90;;;;;;5029396;28;20175;-59
2022/10/15 04:51:39;;;;;;;1.00;0.90;;;13.70;99.90;;;;;;5021914;28;20670;-59
2022/10/15 04:54:05;;;;;;;0.90;0.70;;;13.70;99.90;;;;;;5027479;28;20215;-58
2022/10/15 04:56:30;;;;;;;0.70;0.70;;;13.70;99.90;;;;;;5015985;28;20187;-57
2022/10/15 04:58:56;;;;;;;1.20;0.80;;;13.70;99.90;;;;;;5023818;28;20176;-58
2022/10/15 05:01:22;;;;;;;1.00;0.70;;;13.70;99.90;;;;;;5018730;28;20187;-66
2022/10/15 05:03:48;;;;;;;0.83;0.80;;;13.70;99.90;;;;;;5018360;28;20200;-58
2022/10/15 05:06:18;;;;;;;1.93;0.83;;;13.70;99.90;;;;;;5022512;28;20215;-58
2022/10/15 05:08:45;;;;;;;0.90;0.80;;;13.70;99.90;;;;;;5020536;28;20430;-59
2022/10/15 05:11:20;;;;;;;0.73;0.73;;;13.70;99.90;;;;;;5021103;28;20431;-61
2022/10/15 05:13:46;;;;;;;1.10;0.90;;;13.70;99.90;;;;;;5023052;28;20528;-59
2022/10/15 05:16:23;;;;;;;0.90;0.77;;;13.60;99.90;;;;;;5022504;28;20533;-57
2022/10/15 05:18:51;;;;;;;1.20;0.90;;;13.60;99.90;;;;;;5024938;28;20437;-60
2022/10/15 05:21:17;;;;;;;0.80;0.80;;;13.70;99.90;;;;;;5024921;28;20989;-60
2022/10/15 05:23:44;;;;;;;1.07;0.97;;;13.70;99.90;;;;;;5027475;28;20462;-58
2022/10/15 05:26:12;;;;;;;0.90;0.60;;;13.60;99.90;;;;;;5007835;28;21298;-59
2022/10/15 05:28:38;;;;;;;0.73;0.73;;;13.60;99.90;;;;;;5022782;28;20542;-58
2022/10/15 05:31:12;;;;;;;1.00;1.00;;;13.60;99.90;;;;;;5027637;28;20517;-63
2022/10/15 05:33:38;;;;;;;0.80;0.80;;;13.60;99.90;;;;;;5029565;28;20192;-59
2022/10/15 05:36:12;;;;;;;2.17;0.77;;;13.60;99.90;;;;;;5022754;28;20808;-62
2022/10/15 05:38:38;;;;;;;7.63;0.80;;;13.60;99.90;;;;;;5023234;28;20843;-57
2022/10/15 05:41:04;;;;;;;0.80;0.80;;;13.60;99.90;;;;;;5021163;28;20442;-61
2022/10/15 05:43:29;;;;;;;5.23;0.80;;;13.60;99.90;;;;;;5027324;28;20442;-60
2022/10/15 05:45:56;;;;;;;3.83;0.80;;;13.60;99.90;;;;;;5033271;28;20210;-60
2022/10/15 05:48:21;;;;;;;0.80;0.80;;;13.60;99.90;;;;;;5028205;28;20179;-63
2022/10/15 05:50:47;;;;;;;2.67;0.90;;;13.60;99.90;;;;;;5024327;28;20444;-58
2022/10/15 05:53:13;;;;;;;0.90;0.70;;;13.70;99.90;;;;;;5026523;28;20184;-67
2022/10/15 05:55:38;;;;;;;0.90;0.90;;;13.70;99.90;;;;;;5027507;28;20729;-62
2022/10/15 05:58:04;;;;;;;0.93;0.90;;;13.70;99.90;;;;;;5021474;28;20207;-59
2022/10/15 06:00:31;;;;;;;0.80;0.80;;;13.70;99.90;;;;;;5025910;28;20220;-59
2022/10/15 06:02:57;;;;;;;0.80;0.80;;;13.70;99.90;;;;;;5001913;28;20180;-59
2022/10/15 06:05:22;;;;;;;1.90;0.60;;;13.60;99.90;;;;;;5024015;28;20505;-64
2022/10/15 06:07:48;;;;;;;1.30;0.87;;;13.70;99.90;;;;;;5022951;28;20183;-57
2022/10/15 06:10:14;;;;;;;0.80;0.80;;;13.70;99.90;;;;;;5027457;28;20241;-58
2022/10/15 06:12:39;;;;;;;0.93;0.93;;;13.70;99.90;;;;;;5022169;28;20593;-59
2022/10/15 06:15:06;;;;;;;4.33;0.60;;;13.70;99.90;;;;;;5028880;28;20204;-64
2022/10/15 06:17:31;;;;;;;0.70;0.70;;;13.70;99.90;;;;;;5036690;23;20235;-58
2022/10/15 06:19:57;;;;;;;1.37;0.90;;;13.70;99.90;;;;;;5004145;28;20880;-65
2022/10/15 06:22:23;;;;;;;1.27;1.10;;;13.70;99.90;;;;;;5021310;28;20188;-60
2022/10/15 06:24:48;;;;;;;1.07;0.90;;;13.70;99.90;;;;;;5023444;28;20199;-60
2022/10/15 06:27:14;;;;;;;1.43;1.33;;;13.70;99.90;;;;;;5022859;28;20211;-59
2022/10/15 06:29:40;;;;;;;1.40;1.30;;;13.70;99.90;;;;;;5024461;28;20176;-58
2022/10/15 06:32:09;;;;;;;1.20;1.10;;;13.70;99.90;;;;;;5012228;28;20398;-63
2022/10/15 06:34:35;;;;;;;1.87;1.10;;;13.70;99.90;;;;;;5017127;28;20168;-65
2022/10/15 06:37:00;;;;;;;1.67;1.20;;;13.70;99.90;;;;;;5024730;28;20428;-58
2022/10/15 06:39:26;;;;;;;4.40;0.90;;;13.70;99.90;;;;;;5025690;28;21029;-58
2022/10/15 06:41:52;;;;;;;0.90;0.90;;;13.70;99.90;;;;;;5019878;28;20179;-59
2022/10/15 06:44:17;;;;;;;2.60;0.70;;;13.80;99.90;;;;;;5021446;28;20195;-59
2022/10/15 06:46:43;;;;;;;2.20;0.77;;;13.80;99.90;;;;;;5021540;28;20295;-58
2022/10/15 06:49:08;;;;;;;4.20;0.90;;;13.80;99.90;;;;;;5019857;28;20172;-57
2022/10/15 06:51:36;;;;;;;3.33;0.93;;;13.80;99.90;;;;;;5022363;28;20207;-58
2022/10/15 06:54:02;;;;;;;0.87;0.87;;;13.90;99.90;;;;;;5020175;28;20717;-59
2022/10/15 06:56:28;;;;;;;1.80;0.73;;;13.90;99.90;;;;;;5024141;28;20980;-59
2022/10/15 06:58:53;;;;;;;0.83;0.83;;;13.90;99.90;;;;;;5021322;28;20477;-60
2022/10/15 07:01:19;;;;;;;0.70;0.70;;;13.90;99.90;;;;;;5023237;28;20176;-59
2022/10/15 07:03:48;;;;;;;2.17;0.80;;;14.00;99.90;;;;;;5023144;28;20670;-59
2022/10/15 07:06:14;;;;;;;1.20;0.90;;;14.00;99.90;;;;;;5025351;28;20211;-60
2022/10/15 07:08:40;;;;;;;1.23;0.73;;;14.00;99.90;;;;;;5027492;28;20446;-59
2022/10/15 07:11:08;;;;;;;1.20;1.10;;;14.00;99.90;;;;;;5022224;28;20179;-59
2022/10/15 07:13:33;;;;;;;4.20;0.70;;;14.10;99.90;;;;;;5016479;28;20430;-58
2022/10/15 07:16:06;;;;;;;3.43;0.90;;;14.10;99.90;;;;;;5005809;28;20802;-58
2022/10/15 07:18:33;;;;;;;0.83;0.70;;;14.20;99.90;;;;;;5021999;28;20247;-58
2022/10/15 07:20:58;;;;;;;1.10;1.03;;;14.20;99.90;;;;;;5028605;28;20430;-58
2022/10/15 07:23:24;;;;;;;0.80;0.80;;;14.30;99.90;;;;;;5002457;28;20444;-59
2022/10/15 07:25:49;;;;;;;1.20;1.10;;;14.30;99.90;;;;;;5026381;28;20570;-58
2022/10/15 07:28:15;;;;;;;3.87;1.90;;;14.30;99.90;;;;;;5022456;28;20311;-57
2022/10/15 07:30:41;;;;;;;1.47;1.20;;;14.40;99.90;;;;;;5019735;28;20171;-59
2022/10/15 07:33:06;;;;;;;2.70;0.80;;;14.50;99.90;;;;;;5022239;28;20218;-58
2022/10/15 07:35:32;;;;;;;1.20;0.87;;;14.50;99.90;;;;;;5025355;28;20213;-58
2022/10/15 07:38:01;;;;;;;2.07;1.10;;;14.50;99.90;;;;;;5021967;28;20196;-59
2022/10/15 07:40:27;;;;;;;1.17;1.07;;;14.50;99.90;;;;;;5020517;28;20588;-59
2022/10/15 07:42:54;;;;;;;1.07;0.90;;;14.60;99.90;;;;;;5031088;28;20533;-59
2022/10/15 07:45:20;;;;;;;1.30;1.20;;;14.50;99.90;;;;;;5023084;28;20801;-60
2022/10/15 07:47:45;;;;;;;1.40;1.20;;;14.60;99.90;;;;;;5007560;28;20508;-60
2022/10/15 07:50:11;;;;;;;7.53;1.00;;;14.60;99.90;;;;;;5025652;28;20299;-60
2022/10/15 07:52:36;;;;;;;2.13;0.80;;;14.70;99.90;;;;;;5021371;28;20180;-60
2022/10/15 07:55:02;;;;;;;2.53;1.00;;;14.60;99.90;;;;;;5017009;28;20190;-60
2022/10/15 07:57:28;;;;;;;2.23;1.20;;;14.70;99.90;;;;;;5001051;28;20215;-60
2022/10/15 07:59:54;;;;;;;1.50;1.40;;;14.70;99.90;;;;;;5002264;28;20465;-61
2022/10/15 08:02:20;;;;;;;1.77;1.20;;;14.80;99.90;;;;;;5022094;28;20567;-59
2022/10/15 08:04:46;;;;;;;1.90;1.20;;;14.80;99.90;;;;;;5026536;28;20686;-59
2022/10/15 08:07:11;;;;;;;2.33;1.43;;;14.90;99.90;;;;;;5018104;28;20457;-60
2022/10/15 08:09:37;;;;;;;3.03;1.33;;;15.00;99.90;;;;;;5017928;28;20752;-59
2022/10/15 08:12:05;;;;;;;3.57;1.00;;;15.00;99.90;;;;;;5023492;28;20176;-59
2022/10/15 08:14:30;;;;;;;3.33;1.30;;;15.10;99.90;;;;;;5010794;28;20180;-59
2022/10/15 08:16:56;;;;;;;1.63;0.93;;;15.20;99.90;;;;;;5014065;28;20480;-59
2022/10/15 08:19:21;;;;;;;1.80;1.10;;;15.20;99.90;;;;;;4998934;28;20188;-61
2022/10/15 08:21:47;;;;;;;3.80;0.97;;;15.30;99.90;;;;;;5016644;28;21815;-61
2022/10/15 08:24:13;;;;;;;1.27;1.17;;;15.40;99.90;;;;;;5022942;28;20179;-61
2022/10/15 08:26:39;;;;;;;1.60;1.20;;;15.40;99.90;;;;;;5014691;28;20228;-61
2022/10/15 08:29:04;;;;;;;1.50;1.40;;;15.50;99.90;;;;;;5022783;28;20334;-60
2022/10/15 08:31:30;;;;;;;4.87;1.60;;;15.50;99.90;;;;;;5000815;28;20211;-61
2022/10/15 08:33:59;;;;;;;2.00;1.60;;;15.50;99.90;;;;;;5022794;28;20176;-60
2022/10/15 08:36:24;;;;;;;1.60;1.23;;;15.60;99.90;;;;;;5014497;28;20430;-60
2022/10/15 08:38:50;;;;;;;1.47;1.00;;;15.60;99.90;;;;;;5018186;28;20504;-60
2022/10/15 08:41:33;;;;;;;1.63;1.30;;;15.60;99.90;;;;;;5018676;28;20237;-59
2022/10/15 08:43:59;;;;;;;1.50;1.20;;;15.60;99.90;;;;;;5022864;28;20302;-60
2022/10/15 08:46:38;;;;;;;1.67;1.57;;;15.60;99.90;;;;;;5007219;28;20458;-60
2022/10/15 08:49:04;;;;;;;1.40;1.30;;;15.60;99.90;;;;;;5024716;28;20849;-61
2022/10/15 08:51:38;;;;;;;2.23;1.40;;;15.60;99.90;;;;;;5025795;28;20420;-59
2022/10/15 08:54:05;;;;;;;2.33;1.50;;;15.50;99.90;;;;;;5026929;28;20445;-59
2022/10/15 08:56:38;;;;;;;1.70;1.57;;;15.40;99.90;;;;;;5016337;28;20446;-59
2022/10/15 08:59:21;;;;;;;2.80;2.03;;;15.40;99.90;;;;;;5023208;28;20449;-60
2022/10/15 09:02:19;;;;;;;1.73;1.60;;;15.40;99.90;;;;;;5022970;28;20785;-60
2022/10/15 09:04:52;;;;;;;1.67;1.57;;;15.40;99.90;;;;;;5021633;28;20442;-60
2022/10/15 09:08:00;;;;;;;3.63;1.90;;;15.40;99.90;;;;;;5024584;28;20504;-63
2022/10/15 09:10:42;;;;;;;4.23;2.40;;;15.50;99.90;;;;;;5020583;28;20443;-62
2022/10/15 09:13:24;;;;;;;3.03;1.60;;;15.50;99.90;;;;;;5024159;28;21507;-61
2022/10/15 09:15:56;;;;;;;3.03;1.70;;;15.60;99.90;;;;;;5020368;28;20446;-60
2022/10/15 09:18:29;;;;;;;2.93;1.93;;;15.70;99.90;;;;;;5023312;28;21225;-60
2022/10/15 09:20:56;;;;;;;2.40;1.43;;;15.80;99.90;;;;;;5006791;28;20610;-61
2022/10/15 09:23:25;;;;;;;3.80;1.30;;;15.90;99.90;;;;;;5018720;28;20529;-61
2022/10/15 09:26:01;;;;;;;2.33;1.60;;;16.00;99.90;;;;;;5013451;28;20459;-61
2022/10/15 09:28:40;;;;;;;1.50;1.40;;;16.10;99.90;;;;;;5023983;28;20693;-61
2022/10/15 09:31:09;;;;;;;2.60;1.53;;;16.20;99.90;;;;;;5023892;28;20434;-61
2022/10/15 09:33:46;;;;;;;4.00;1.50;;;16.10;99.90;;;;;;5020206;28;21123;-62
2022/10/15 09:36:34;;;;;;;2.73;1.50;;;16.10;99.90;;;;;;5022965;28;20461;-61
2022/10/15 09:39:34;;;;;;;2.90;1.60;;;16.10;99.90;;;;;;5024266;28;20897;-61
2022/10/15 09:42:23;;;;;;;1.47;1.20;;;16.00;99.90;;;;;;5021342;28;20449;-61
2022/10/15 09:44:50;;;;;;;6.20;1.73;;;16.10;99.90;;;;;;5015745;28;20445;-62
2022/10/15 09:47:25;;;;;;;2.13;1.93;;;16.10;99.90;;;;;;5019215;28;20458;-61
2022/10/15 09:49:51;;;;;;;1.63;1.47;;;16.00;99.90;;;;;;5019668;28;21102;-61
2022/10/15 09:52:28;;;;;;;4.47;1.47;;;16.00;99.90;;;;;;5024856;28;20443;-62
2022/10/15 09:55:09;;;;;;;2.50;1.90;;;16.00;99.90;;;;;;5000928;28;20268;-62
2022/10/15 09:57:37;;;;;;;3.93;1.10;;;16.00;99.90;;;;;;5024289;28;21003;-61
2022/10/15 10:00:08;;;;;;;2.87;1.20;;;16.00;99.90;;;;;;5021606;28;20446;-61
2022/10/15 10:02:33;;;;;;;2.17;1.77;;;16.00;99.90;;;;;;5006371;28;20437;-61
2022/10/15 10:05:27;;;;;;;2.03;1.77;;;16.10;99.90;;;;;;5017642;28;20467;-62
2022/10/15 10:08:14;;;;;;;2.07;1.43;;;16.10;99.90;;;;;;5024168;28;20199;-62
2022/10/15 10:10:41;;;;;;;6.07;1.10;;;16.10;99.90;;;;;;5023090;28;21691;-61
2022/10/15 10:13:22;;;;;;;1.03;0.93;;;16.20;99.90;;;;;;5022158;28;20442;-61
2022/10/15 10:15:50;;;;;;;3.00;1.10;;;16.20;99.90;;;;;;5023621;28;20449;-60
2022/10/15 10:18:20;;;;;;;1.43;1.30;;;16.20;99.90;;;;;;5026773;28;20516;-60
2022/10/15 10:21:02;;;;;;;6.43;3.60;;;16.30;99.90;;;;;;5020726;28;20953;-60
2022/10/15 10:23:36;;;;;;;3.03;1.40;;;16.30;99.90;;;;;;5020441;28;20530;-63
2022/10/15 10:26:05;;;;;;;4.30;1.87;;;16.30;99.90;;;;;;5022546;28;20462;-61
2022/10/15 10:28:50;;;;;;;6.13;1.27;;;16.30;99.90;;;;;;5015635;28;20520;-60
2022/10/15 10:31:16;;;;;;;2.30;1.80;;;16.20;99.90;;;;;;5023782;28;20496;-61
2022/10/15 10:33:48;;;;;;;3.57;0.93;;;16.10;99.90;;;;;;5019197;28;20426;-59
2022/10/15 10:36:40;;;;;;;2.87;1.20;;;16.10;99.90;;;;;;4998766;28;20438;-62
2022/10/15 10:39:09;;;;;;;2.40;0.90;;;16.00;99.90;;;;;;5013355;28;20481;-60
2022/10/15 10:41:59;;;;;;;1.17;1.00;;;16.10;99.90;;;;;;5018667;28;20442;-61
2022/10/15 10:44:36;;;;;;;1.53;0.90;;;16.10;99.90;;;;;;5008803;28;20438;-61
2022/10/15 10:47:18;;;;;;;4.63;0.97;;;16.10;99.90;;;;;;5025498;28;20512;-61
2022/10/15 10:49:48;;;;;;;3.03;0.80;;;16.00;99.90;;;;;;5026310;28;20434;-60
2022/10/15 10:52:20;;;;;;;1.57;0.90;;;16.00;99.90;;;;;;5022847;28;20441;-61
2022/10/15 10:54:47;;;;;;;1.47;1.10;;;16.00;99.90;;;;;;5008555;28;20430;-61
2022/10/15 10:57:17;;;;;;;2.83;0.90;;;15.90;99.90;;;;;;5025492;28;20854;-61
2022/10/15 10:59:52;;;;;;;1.10;1.00;;;15.90;99.90;;;;;;5024194;28;20430;-61
2022/10/15 11:02:18;;;;;;;2.93;1.00;;;15.90;99.90;;;;;;5023389;28;20517;-61
2022/10/15 11:04:45;;;;;;;1.63;0.80;;;16.00;99.90;;;;;;5026604;28;20505;-61
2022/10/15 11:07:13;;;;;;;3.00;1.30;;;16.00;99.90;;;;;;5028355;28;20593;-61
2022/10/15 11:09:50;;;;;;;1.30;1.20;;;16.00;99.90;;;;;;5011720;28;20477;-61
2022/10/15 11:12:43;;;;;;;1.53;1.17;;;16.10;99.90;;;;;;5016788;28;20943;-61
2022/10/15 11:15:24;;;;;;;1.20;1.10;;;16.10;99.90;;;;;;5027002;28;20434;-61
2022/10/15 11:18:11;;;;;;;5.93;0.90;;;16.20;99.90;;;;;;5025704;28;20608;-61
2022/10/15 11:21:12;;;;;;;4.17;2.00;;;16.30;99.90;;;;;;5028389;28;20434;-62
2022/10/15 11:23:57;;;;;;;3.97;2.20;;;16.30;99.90;;;;;;5005618;28;20896;-61
2022/10/15 11:27:05;;;;;;;3.37;1.50;;;16.60;99.90;;;;;;5027741;28;20532;-61
2022/10/15 11:30:08;;;;;;;2.03;1.60;;;16.70;99.90;;;;;;4988760;28;20431;-60
2022/10/15 11:32:55;;;;;;;2.20;1.50;;;16.80;99.90;;;;;;5027061;28;20456;-60
2022/10/15 11:35:30;;;;;;;2.80;0.93;;;17.10;99.90;;;;;;5023682;28;20957;-61
2022/10/15 11:38:14;;;;;;;1.63;1.50;;;17.50;99.90;;;;;;5028786;28;21228;-60
2022/10/15 11:41:07;;;;;;;1.13;0.93;;;18.00;99.90;;;;;;5028421;28;20454;-60
2022/10/15 11:43:41;;;;;;;1.13;1.03;;;19.10;99.90;;;;;;5021110;28;20434;-61
2022/10/15 11:46:37;;;;;;;0.83;0.80;;;20.10;96.20;;;;;;5021494;28;20454;-61
2022/10/15 11:49:24;;;;;;;3.40;1.40;;;20.50;79.00;;;;;;5024022;28;20485;-61
2022/10/15 11:51:55;;;;;;;1.00;0.90;;;20.10;80.50;;;;;;5020787;28;20549;-61
2022/10/15 11:54:25;;;;;;;1.53;0.90;;;19.90;86.80;;;;;;5001406;28;20438;-61
2022/10/15 11:56:54;;;;;;;2.40;1.03;;;19.60;86.70;;;;;;5016761;28;20786;-61
2022/10/15 11:59:32;;;;;;;1.13;0.80;;;19.40;85.50;;;;;;5011871;28;20509;-62
2022/10/15 12:02:28;;;;;;;2.90;1.20;;;19.20;87.60;;;;;;5025401;28;20442;-61
2022/10/15 12:05:13;;;;;;;2.97;0.93;;;18.80;89.10;;;;;;5027301;28;21113;-61
2022/10/15 12:07:44;;;;;;;2.40;0.83;;;18.40;92.40;;;;;;5015678;28;20450;-60
2022/10/15 12:10:31;;;;;;;1.30;1.20;;;18.10;94.00;;;;;;5017182;28;21035;-61
2022/10/15 12:13:20;;;;;;;2.07;0.90;;;17.90;98.00;;;;;;5019198;28;20458;-61
2022/10/15 12:16:10;;;;;;;2.93;1.33;;;17.80;99.70;;;;;;5016693;28;20530;-58
2022/10/15 12:18:46;;;;;;;2.73;1.50;;;17.70;97.70;;;;;;5022522;28;20473;-59
2022/10/15 12:21:48;;;;;;;1.83;1.33;;;17.80;98.60;;;;;;5023554;28;20422;-60
2022/10/15 12:24:46;;;;;;;2.80;0.90;;;18.00;96.10;;;;;;5021034;28;20492;-61
2022/10/15 12:27:18;;;;;;;1.87;0.80;;;18.10;93.80;;;;;;5019830;28;20472;-60
2022/10/15 12:30:19;;;;;;;1.37;1.00;;;18.20;93.20;;;;;;5013271;28;20453;-62
2022/10/15 12:32:47;;;;;;;2.40;1.03;;;18.70;95.10;;;;;;5007097;28;20469;-60
2022/10/15 12:35:20;;;;;;;1.10;0.93;;;19.10;89.40;;;;;;5024233;28;20476;-61
2022/10/15 12:37:48;;;;;;;0.80;0.80;;;19.10;84.30;;;;;;5022862;28;20450;-60
2022/10/15 12:40:20;;;;;;;1.10;0.93;;;19.00;87.10;;;;;;5025734;28;20438;-61
2022/10/15 12:42:54;;;;;;;4.43;1.13;;;18.90;90.50;;;;;;5022821;28;20427;-60
2022/10/15 12:45:34;;;;;;;1.47;1.37;;;18.90;91.80;;;;;;5026033;28;20477;-60
2022/10/15 12:48:03;;;;;;;2.40;0.80;;;18.80;92.00;;;;;;5023251;28;20871;-61
2022/10/15 12:50:30;;;;;;;2.13;0.90;;;18.70;90.10;;;;;;5024567;28;20963;-59
2022/10/15 12:53:24;;;;;;;0.77;0.77;;;18.60;92.10;;;;;;5017909;28;20434;-60
2022/10/15 12:56:09;;;;;;;1.93;1.03;;;18.70;90.00;;;;;;5022473;28;20851;-60
2022/10/15 12:58:39;;;;;;;1.60;1.20;;;18.70;92.00;;;;;;5022951;28;20755;-59
2022/10/15 13:01:14;;;;;;;3.40;1.60;;;19.00;95.80;;;;;;5016502;28;20452;-59
2022/10/15 13:03:50;;;;;;;2.23;1.13;;;19.60;90.00;;;;;;5020418;28;21069;-59
2022/10/15 13:06:19;;;;;;;2.00;0.93;;;19.70;80.00;;;;;;5017769;28;20513;-61
2022/10/15 13:08:53;;;;;;;1.10;0.90;;;19.60;79.50;;;;;;5012983;28;20593;-60
2022/10/15 13:11:24;;;;;;;1.10;1.00;;;19.50;80.20;;;;;;5020761;28;20454;-61